sensor_id;sensor_type;location;lat;lon;timestamp;P1;durP1;ratioP1;P2;durP2;ratioP2
49722;SDS011;43484;43.608;1.458;2024-01-06T00:00:05;5.60;;;1.77;;
49722;SDS011;43484;43.608;1.458;2024-01-06T00:02:32;8.23;;;2.05;;
49722;SDS011;43484;43.608;1.458;2024-01-06T00:04:59;3.83;;;1.80;;
49722;SDS011;43484;43.608;1.458;2024-01-06T00:07:26;7.13;;;2.33;;
49722;SDS011;43484;43.608;1.458;2024-01-06T00:09:52;2.88;;;1.70;;
49722;SDS011;43484;43.608;1.458;2024-01-06T00:12:20;4.80;;;2.10;;
49722;SDS011;43484;43.608;1.458;2024-01-06T00:14:46;9.18;;;2.88;;
49722;SDS011;43484;43.608;1.458;2024-01-06T00:17:13;14.23;;;2.42;;
49722;SDS011;43484;43.608;1.458;2024-01-06T00:19:40;4.63;;;1.80;;
49722;SDS011;43484;43.608;1.458;2024-01-06T00:22:07;11.88;;;3.85;;
49722;SDS011;43484;43.608;1.458;2024-01-06T00:24:34;8.55;;;2.78;;
49722;SDS011;43484;43.608;1.458;2024-01-06T00:27:01;5.68;;;2.22;;
49722;SDS011;43484;43.608;1.458;2024-01-06T00:29:28;15.60;;;2.80;;
49722;SDS011;43484;43.608;1.458;2024-01-06T00:31:54;9.80;;;2.35;;
49722;SDS011;43484;43.608;1.458;2024-01-06T00:34:21;7.20;;;2.53;;
49722;SDS011;43484;43.608;1.458;2024-01-06T00:36:47;7.15;;;2.30;;
49722;SDS011;43484;43.608;1.458;2024-01-06T00:39:14;9.70;;;2.10;;
49722;SDS011;43484;43.608;1.458;2024-01-06T00:41:41;9.40;;;2.30;;
49722;SDS011;43484;43.608;1.458;2024-01-06T00:44:07;7.13;;;3.00;;
49722;SDS011;43484;43.608;1.458;2024-01-06T00:46:34;10.63;;;2.22;;
49722;SDS011;43484;43.608;1.458;2024-01-06T00:49:01;7.72;;;2.38;;
49722;SDS011;43484;43.608;1.458;2024-01-06T00:51:27;10.43;;;2.97;;
49722;SDS011;43484;43.608;1.458;2024-01-06T00:53:54;6.53;;;2.10;;
49722;SDS011;43484;43.608;1.458;2024-01-06T00:56:21;8.65;;;3.10;;
49722;SDS011;43484;43.608;1.458;2024-01-06T00:58:48;9.25;;;2.88;;
49722;SDS011;43484;43.608;1.458;2024-01-06T01:01:14;6.70;;;2.45;;
49722;SDS011;43484;43.608;1.458;2024-01-06T01:03:41;19.30;;;3.22;;
49722;SDS011;43484;43.608;1.458;2024-01-06T01:06:08;6.60;;;2.90;;
49722;SDS011;43484;43.608;1.458;2024-01-06T01:08:34;7.75;;;2.70;;
49722;SDS011;43484;43.608;1.458;2024-01-06T01:11:01;6.43;;;2.67;;
49722;SDS011;43484;43.608;1.458;2024-01-06T01:13:28;8.07;;;3.28;;
49722;SDS011;43484;43.608;1.458;2024-01-06T01:15:55;6.28;;;2.92;;
49722;SDS011;43484;43.608;1.458;2024-01-06T01:18:22;6.22;;;2.88;;
49722;SDS011;43484;43.608;1.458;2024-01-06T01:20:49;8.98;;;2.60;;
49722;SDS011;43484;43.608;1.458;2024-01-06T01:23:15;11.05;;;2.95;;
49722;SDS011;43484;43.608;1.458;2024-01-06T01:25:42;8.57;;;2.85;;
49722;SDS011;43484;43.608;1.458;2024-01-06T01:28:08;6.65;;;3.70;;
49722;SDS011;43484;43.608;1.458;2024-01-06T01:30:35;7.78;;;2.15;;
49722;SDS011;43484;43.608;1.458;2024-01-06T01:33:02;9.30;;;2.28;;
49722;SDS011;43484;43.608;1.458;2024-01-06T01:35:29;7.35;;;2.45;;
49722;SDS011;43484;43.608;1.458;2024-01-06T01:37:55;9.80;;;2.40;;
49722;SDS011;43484;43.608;1.458;2024-01-06T01:40:22;9.45;;;2.47;;
49722;SDS011;43484;43.608;1.458;2024-01-06T01:42:49;10.45;;;2.92;;
49722;SDS011;43484;43.608;1.458;2024-01-06T01:45:15;8.82;;;2.33;;
49722;SDS011;43484;43.608;1.458;2024-01-06T01:47:42;6.10;;;2.47;;
49722;SDS011;43484;43.608;1.458;2024-01-06T01:50:12;4.00;;;2.08;;
49722;SDS011;43484;43.608;1.458;2024-01-06T01:52:40;11.43;;;2.58;;
49722;SDS011;43484;43.608;1.458;2024-01-06T01:55:08;6.93;;;2.30;;
49722;SDS011;43484;43.608;1.458;2024-01-06T01:57:35;5.70;;;1.90;;
49722;SDS011;43484;43.608;1.458;2024-01-06T02:00:02;5.28;;;1.92;;
49722;SDS011;43484;43.608;1.458;2024-01-06T02:02:29;8.50;;;2.03;;
49722;SDS011;43484;43.608;1.458;2024-01-06T02:04:56;6.72;;;2.85;;
49722;SDS011;43484;43.608;1.458;2024-01-06T02:07:22;4.47;;;1.77;;
49722;SDS011;43484;43.608;1.458;2024-01-06T02:09:49;4.97;;;2.13;;
49722;SDS011;43484;43.608;1.458;2024-01-06T02:12:16;6.43;;;2.20;;
49722;SDS011;43484;43.608;1.458;2024-01-06T02:14:43;5.45;;;2.10;;
49722;SDS011;43484;43.608;1.458;2024-01-06T02:17:09;5.10;;;2.58;;
49722;SDS011;43484;43.608;1.458;2024-01-06T02:19:36;6.95;;;2.72;;
49722;SDS011;43484;43.608;1.458;2024-01-06T02:22:03;9.13;;;2.25;;
49722;SDS011;43484;43.608;1.458;2024-01-06T02:24:30;7.47;;;2.47;;
49722;SDS011;43484;43.608;1.458;2024-01-06T02:26:56;13.00;;;3.10;;
49722;SDS011;43484;43.608;1.458;2024-01-06T02:29:23;12.18;;;2.53;;
49722;SDS011;43484;43.608;1.458;2024-01-06T02:31:50;4.75;;;2.10;;
49722;SDS011;43484;43.608;1.458;2024-01-06T02:34:16;8.68;;;2.30;;
49722;SDS011;43484;43.608;1.458;2024-01-06T02:36:43;6.25;;;2.30;;
49722;SDS011;43484;43.608;1.458;2024-01-06T02:39:10;7.05;;;2.10;;
49722;SDS011;43484;43.608;1.458;2024-01-06T02:41:37;7.28;;;2.15;;
49722;SDS011;43484;43.608;1.458;2024-01-06T02:44:03;9.27;;;1.67;;
49722;SDS011;43484;43.608;1.458;2024-01-06T02:46:30;8.43;;;2.50;;
49722;SDS011;43484;43.608;1.458;2024-01-06T02:48:57;5.20;;;2.38;;
49722;SDS011;43484;43.608;1.458;2024-01-06T02:51:24;7.78;;;1.90;;
49722;SDS011;43484;43.608;1.458;2024-01-06T02:53:50;6.10;;;2.65;;
49722;SDS011;43484;43.608;1.458;2024-01-06T02:56:17;6.35;;;1.92;;
49722;SDS011;43484;43.608;1.458;2024-01-06T02:58:43;10.43;;;2.20;;
49722;SDS011;43484;43.608;1.458;2024-01-06T03:01:11;7.07;;;2.55;;
49722;SDS011;43484;43.608;1.458;2024-01-06T03:03:38;9.77;;;2.20;;
49722;SDS011;43484;43.608;1.458;2024-01-06T03:06:05;7.63;;;2.25;;
49722;SDS011;43484;43.608;1.458;2024-01-06T03:08:32;6.68;;;1.95;;
49722;SDS011;43484;43.608;1.458;2024-01-06T03:11:01;8.07;;;1.92;;
49722;SDS011;43484;43.608;1.458;2024-01-06T03:13:30;7.88;;;2.20;;
49722;SDS011;43484;43.608;1.458;2024-01-06T03:15:56;6.70;;;1.77;;
49722;SDS011;43484;43.608;1.458;2024-01-06T03:18:23;5.03;;;1.90;;
49722;SDS011;43484;43.608;1.458;2024-01-06T03:20:50;5.57;;;2.22;;
49722;SDS011;43484;43.608;1.458;2024-01-06T03:23:16;11.70;;;2.55;;
49722;SDS011;43484;43.608;1.458;2024-01-06T03:25:43;15.70;;;1.90;;
49722;SDS011;43484;43.608;1.458;2024-01-06T03:28:10;6.70;;;2.13;;
49722;SDS011;43484;43.608;1.458;2024-01-06T03:30:36;7.55;;;2.28;;
49722;SDS011;43484;43.608;1.458;2024-01-06T03:33:03;9.80;;;3.38;;
49722;SDS011;43484;43.608;1.458;2024-01-06T03:35:30;4.93;;;1.77;;
49722;SDS011;43484;43.608;1.458;2024-01-06T03:37:57;8.25;;;1.80;;
49722;SDS011;43484;43.608;1.458;2024-01-06T03:40:23;9.13;;;3.22;;
49722;SDS011;43484;43.608;1.458;2024-01-06T03:42:50;9.18;;;2.13;;
49722;SDS011;43484;43.608;1.458;2024-01-06T03:45:16;5.90;;;1.95;;
49722;SDS011;43484;43.608;1.458;2024-01-06T03:47:43;7.15;;;2.13;;
49722;SDS011;43484;43.608;1.458;2024-01-06T03:50:10;14.68;;;2.42;;
49722;SDS011;43484;43.608;1.458;2024-01-06T03:52:36;9.73;;;2.28;;
49722;SDS011;43484;43.608;1.458;2024-01-06T03:55:03;8.18;;;1.70;;
49722;SDS011;43484;43.608;1.458;2024-01-06T03:57:30;10.65;;;1.80;;
49722;SDS011;43484;43.608;1.458;2024-01-06T03:59:57;8.25;;;2.17;;
49722;SDS011;43484;43.608;1.458;2024-01-06T04:02:24;7.20;;;2.50;;
49722;SDS011;43484;43.608;1.458;2024-01-06T04:04:50;11.40;;;1.63;;
49722;SDS011;43484;43.608;1.458;2024-01-06T04:07:17;13.50;;;2.65;;
49722;SDS011;43484;43.608;1.458;2024-01-06T04:09:44;9.18;;;1.63;;
49722;SDS011;43484;43.608;1.458;2024-01-06T04:12:10;5.93;;;2.05;;
49722;SDS011;43484;43.608;1.458;2024-01-06T04:14:37;11.30;;;1.60;;
49722;SDS011;43484;43.608;1.458;2024-01-06T04:17:04;3.70;;;1.75;;
49722;SDS011;43484;43.608;1.458;2024-01-06T04:19:30;5.95;;;2.00;;
49722;SDS011;43484;43.608;1.458;2024-01-06T04:21:58;12.45;;;2.60;;
49722;SDS011;43484;43.608;1.458;2024-01-06T04:24:26;10.02;;;2.63;;
49722;SDS011;43484;43.608;1.458;2024-01-06T04:26:52;14.30;;;2.75;;
49722;SDS011;43484;43.608;1.458;2024-01-06T04:29:19;12.15;;;2.10;;
49722;SDS011;43484;43.608;1.458;2024-01-06T04:31:45;9.48;;;2.60;;
49722;SDS011;43484;43.608;1.458;2024-01-06T04:34:12;12.30;;;2.22;;
49722;SDS011;43484;43.608;1.458;2024-01-06T04:36:39;9.55;;;2.30;;
49722;SDS011;43484;43.608;1.458;2024-01-06T04:39:06;11.40;;;2.42;;
49722;SDS011;43484;43.608;1.458;2024-01-06T04:41:32;8.75;;;1.85;;
49722;SDS011;43484;43.608;1.458;2024-01-06T04:43:59;8.73;;;2.60;;
49722;SDS011;43484;43.608;1.458;2024-01-06T04:46:26;8.90;;;2.60;;
49722;SDS011;43484;43.608;1.458;2024-01-06T04:48:52;15.07;;;2.53;;
49722;SDS011;43484;43.608;1.458;2024-01-06T04:51:19;7.88;;;2.22;;
49722;SDS011;43484;43.608;1.458;2024-01-06T04:53:46;11.27;;;2.05;;
49722;SDS011;43484;43.608;1.458;2024-01-06T04:56:13;11.35;;;2.25;;
49722;SDS011;43484;43.608;1.458;2024-01-06T04:58:40;10.77;;;2.92;;
49722;SDS011;43484;43.608;1.458;2024-01-06T05:01:06;7.88;;;3.25;;
49722;SDS011;43484;43.608;1.458;2024-01-06T05:03:34;11.43;;;2.47;;
49722;SDS011;43484;43.608;1.458;2024-01-06T05:06:01;14.35;;;2.47;;
49722;SDS011;43484;43.608;1.458;2024-01-06T05:08:28;11.68;;;2.80;;
49722;SDS011;43484;43.608;1.458;2024-01-06T05:10:57;12.23;;;2.13;;
49722;SDS011;43484;43.608;1.458;2024-01-06T05:13:23;8.13;;;1.80;;
49722;SDS011;43484;43.608;1.458;2024-01-06T05:15:50;9.57;;;1.98;;
49722;SDS011;43484;43.608;1.458;2024-01-06T05:18:17;8.93;;;2.20;;
49722;SDS011;43484;43.608;1.458;2024-01-06T05:20:44;3.88;;;1.63;;
49722;SDS011;43484;43.608;1.458;2024-01-06T05:23:10;11.95;;;2.13;;
49722;SDS011;43484;43.608;1.458;2024-01-06T05:25:37;14.77;;;2.63;;
49722;SDS011;43484;43.608;1.458;2024-01-06T05:28:04;11.38;;;2.35;;
49722;SDS011;43484;43.608;1.458;2024-01-06T05:30:30;12.68;;;2.50;;
49722;SDS011;43484;43.608;1.458;2024-01-06T05:32:57;12.40;;;2.20;;
49722;SDS011;43484;43.608;1.458;2024-01-06T05:35:24;7.80;;;2.42;;
49722;SDS011;43484;43.608;1.458;2024-01-06T05:37:50;10.93;;;2.33;;
49722;SDS011;43484;43.608;1.458;2024-01-06T05:40:17;6.38;;;2.35;;
49722;SDS011;43484;43.608;1.458;2024-01-06T05:42:44;10.30;;;2.50;;
49722;SDS011;43484;43.608;1.458;2024-01-06T05:45:11;11.43;;;2.67;;
49722;SDS011;43484;43.608;1.458;2024-01-06T05:47:39;8.48;;;2.47;;
49722;SDS011;43484;43.608;1.458;2024-01-06T05:50:06;9.43;;;2.17;;
49722;SDS011;43484;43.608;1.458;2024-01-06T05:52:36;12.82;;;2.88;;
49722;SDS011;43484;43.608;1.458;2024-01-06T05:55:03;8.15;;;2.10;;
49722;SDS011;43484;43.608;1.458;2024-01-06T05:57:30;15.52;;;3.20;;
49722;SDS011;43484;43.608;1.458;2024-01-06T05:59:57;15.63;;;3.25;;
49722;SDS011;43484;43.608;1.458;2024-01-06T06:02:25;8.75;;;2.90;;
49722;SDS011;43484;43.608;1.458;2024-01-06T06:04:52;9.23;;;2.42;;
49722;SDS011;43484;43.608;1.458;2024-01-06T06:07:19;7.28;;;2.75;;
49722;SDS011;43484;43.608;1.458;2024-01-06T06:09:46;13.00;;;2.55;;
49722;SDS011;43484;43.608;1.458;2024-01-06T06:12:14;5.55;;;2.08;;
49722;SDS011;43484;43.608;1.458;2024-01-06T06:14:41;10.48;;;2.50;;
49722;SDS011;43484;43.608;1.458;2024-01-06T06:17:07;13.63;;;2.85;;
49722;SDS011;43484;43.608;1.458;2024-01-06T06:19:34;5.43;;;2.05;;
49722;SDS011;43484;43.608;1.458;2024-01-06T06:22:01;9.05;;;2.78;;
49722;SDS011;43484;43.608;1.458;2024-01-06T06:24:27;6.70;;;3.15;;
49722;SDS011;43484;43.608;1.458;2024-01-06T06:26:54;10.60;;;3.15;;
49722;SDS011;43484;43.608;1.458;2024-01-06T06:29:21;15.73;;;3.03;;
49722;SDS011;43484;43.608;1.458;2024-01-06T06:31:48;8.82;;;2.97;;
49722;SDS011;43484;43.608;1.458;2024-01-06T06:34:15;11.23;;;3.03;;
49722;SDS011;43484;43.608;1.458;2024-01-06T06:36:42;7.85;;;3.33;;
49722;SDS011;43484;43.608;1.458;2024-01-06T06:39:09;9.68;;;3.60;;
49722;SDS011;43484;43.608;1.458;2024-01-06T06:41:35;8.10;;;2.40;;
49722;SDS011;43484;43.608;1.458;2024-01-06T06:44:02;8.07;;;2.53;;
49722;SDS011;43484;43.608;1.458;2024-01-06T06:46:29;8.10;;;2.20;;
49722;SDS011;43484;43.608;1.458;2024-01-06T06:48:56;11.50;;;3.03;;
49722;SDS011;43484;43.608;1.458;2024-01-06T06:51:22;9.93;;;2.40;;
49722;SDS011;43484;43.608;1.458;2024-01-06T06:53:54;11.52;;;2.83;;
49722;SDS011;43484;43.608;1.458;2024-01-06T06:56:20;7.63;;;1.95;;
49722;SDS011;43484;43.608;1.458;2024-01-06T06:58:47;9.32;;;1.88;;
49722;SDS011;43484;43.608;1.458;2024-01-06T07:01:14;8.18;;;2.95;;
49722;SDS011;43484;43.608;1.458;2024-01-06T07:03:42;9.30;;;2.90;;
49722;SDS011;43484;43.608;1.458;2024-01-06T07:06:11;6.65;;;1.65;;
49722;SDS011;43484;43.608;1.458;2024-01-06T07:08:38;6.20;;;1.92;;
49722;SDS011;43484;43.608;1.458;2024-01-06T07:11:05;9.30;;;2.85;;
49722;SDS011;43484;43.608;1.458;2024-01-06T07:13:32;11.52;;;1.92;;
49722;SDS011;43484;43.608;1.458;2024-01-06T07:15:58;4.32;;;1.65;;
49722;SDS011;43484;43.608;1.458;2024-01-06T07:18:43;7.50;;;1.75;;
49722;SDS011;43484;43.608;1.458;2024-01-06T07:21:11;6.30;;;1.83;;
49722;SDS011;43484;43.608;1.458;2024-01-06T07:23:38;8.82;;;1.80;;
49722;SDS011;43484;43.608;1.458;2024-01-06T07:26:05;7.50;;;1.60;;
49722;SDS011;43484;43.608;1.458;2024-01-06T07:28:32;3.78;;;1.58;;
49722;SDS011;43484;43.608;1.458;2024-01-06T07:31:00;3.70;;;1.58;;
49722;SDS011;43484;43.608;1.458;2024-01-06T07:33:27;5.80;;;1.42;;
49722;SDS011;43484;43.608;1.458;2024-01-06T07:35:54;5.32;;;2.17;;
49722;SDS011;43484;43.608;1.458;2024-01-06T07:38:20;2.70;;;1.35;;
49722;SDS011;43484;43.608;1.458;2024-01-06T07:40:47;1.75;;;1.20;;
49722;SDS011;43484;43.608;1.458;2024-01-06T07:43:14;4.47;;;1.30;;
49722;SDS011;43484;43.608;1.458;2024-01-06T07:45:41;8.93;;;2.42;;
49722;SDS011;43484;43.608;1.458;2024-01-06T07:48:08;1.27;;;0.90;;
49722;SDS011;43484;43.608;1.458;2024-01-06T07:50:35;4.88;;;1.45;;
49722;SDS011;43484;43.608;1.458;2024-01-06T07:53:02;2.55;;;1.20;;
49722;SDS011;43484;43.608;1.458;2024-01-06T07:55:28;1.38;;;0.85;;
49722;SDS011;43484;43.608;1.458;2024-01-06T07:57:56;2.10;;;1.35;;
49722;SDS011;43484;43.608;1.458;2024-01-06T08:00:22;5.63;;;1.25;;
49722;SDS011;43484;43.608;1.458;2024-01-06T08:02:49;3.00;;;1.08;;
49722;SDS011;43484;43.608;1.458;2024-01-06T08:05:16;2.50;;;1.20;;
49722;SDS011;43484;43.608;1.458;2024-01-06T08:07:42;4.00;;;1.08;;
49722;SDS011;43484;43.608;1.458;2024-01-06T08:10:09;2.03;;;0.90;;
49722;SDS011;43484;43.608;1.458;2024-01-06T08:12:36;2.78;;;0.80;;
49722;SDS011;43484;43.608;1.458;2024-01-06T08:15:03;2.90;;;0.90;;
49722;SDS011;43484;43.608;1.458;2024-01-06T08:17:31;4.40;;;1.05;;
49722;SDS011;43484;43.608;1.458;2024-01-06T08:19:58;6.45;;;1.15;;
49722;SDS011;43484;43.608;1.458;2024-01-06T08:22:26;1.13;;;0.70;;
49722;SDS011;43484;43.608;1.458;2024-01-06T08:24:52;1.92;;;1.10;;
49722;SDS011;43484;43.608;1.458;2024-01-06T08:27:19;1.58;;;0.77;;
49722;SDS011;43484;43.608;1.458;2024-01-06T08:29:47;3.47;;;0.90;;
49722;SDS011;43484;43.608;1.458;2024-01-06T08:32:14;1.00;;;0.70;;
49722;SDS011;43484;43.608;1.458;2024-01-06T08:34:41;0.70;;;0.70;;
49722;SDS011;43484;43.608;1.458;2024-01-06T08:37:08;4.28;;;0.85;;
49722;SDS011;43484;43.608;1.458;2024-01-06T08:39:34;1.35;;;0.95;;
49722;SDS011;43484;43.608;1.458;2024-01-06T08:42:01;1.73;;;0.80;;
49722;SDS011;43484;43.608;1.458;2024-01-06T08:44:28;1.77;;;1.02;;
49722;SDS011;43484;43.608;1.458;2024-01-06T08:46:55;2.22;;;1.00;;
49722;SDS011;43484;43.608;1.458;2024-01-06T08:49:22;2.28;;;1.15;;
49722;SDS011;43484;43.608;1.458;2024-01-06T08:51:49;1.65;;;1.05;;
49722;SDS011;43484;43.608;1.458;2024-01-06T08:54:16;2.22;;;1.02;;
49722;SDS011;43484;43.608;1.458;2024-01-06T08:56:43;3.17;;;0.90;;
49722;SDS011;43484;43.608;1.458;2024-01-06T08:59:09;2.38;;;1.20;;
49722;SDS011;43484;43.608;1.458;2024-01-06T09:01:36;3.92;;;1.13;;
49722;SDS011;43484;43.608;1.458;2024-01-06T09:04:04;2.75;;;1.02;;
49722;SDS011;43484;43.608;1.458;2024-01-06T09:06:33;1.88;;;1.08;;
49722;SDS011;43484;43.608;1.458;2024-01-06T09:09:00;3.95;;;0.95;;
49722;SDS011;43484;43.608;1.458;2024-01-06T09:11:26;5.50;;;1.23;;
49722;SDS011;43484;43.608;1.458;2024-01-06T09:13:53;2.35;;;0.90;;
49722;SDS011;43484;43.608;1.458;2024-01-06T09:16:20;2.92;;;0.75;;
49722;SDS011;43484;43.608;1.458;2024-01-06T09:18:47;4.90;;;0.95;;
49722;SDS011;43484;43.608;1.458;2024-01-06T09:21:14;2.60;;;0.80;;
49722;SDS011;43484;43.608;1.458;2024-01-06T09:23:41;6.28;;;1.08;;
49722;SDS011;43484;43.608;1.458;2024-01-06T09:26:08;2.60;;;0.80;;
49722;SDS011;43484;43.608;1.458;2024-01-06T09:28:34;2.97;;;1.35;;
49722;SDS011;43484;43.608;1.458;2024-01-06T09:31:02;12.07;;;1.92;;
49722;SDS011;43484;43.608;1.458;2024-01-06T09:33:28;2.90;;;0.85;;
49722;SDS011;43484;43.608;1.458;2024-01-06T09:35:55;2.42;;;1.00;;
49722;SDS011;43484;43.608;1.458;2024-01-06T09:38:22;5.10;;;1.40;;
49722;SDS011;43484;43.608;1.458;2024-01-06T09:40:49;7.80;;;1.42;;
49722;SDS011;43484;43.608;1.458;2024-01-06T09:43:15;8.57;;;1.35;;
49722;SDS011;43484;43.608;1.458;2024-01-06T09:45:42;2.50;;;1.13;;
49722;SDS011;43484;43.608;1.458;2024-01-06T09:48:14;7.68;;;1.25;;
49722;SDS011;43484;43.608;1.458;2024-01-06T09:50:43;3.47;;;1.00;;
49722;SDS011;43484;43.608;1.458;2024-01-06T09:53:13;4.95;;;0.93;;
49722;SDS011;43484;43.608;1.458;2024-01-06T09:55:40;4.13;;;1.50;;
49722;SDS011;43484;43.608;1.458;2024-01-06T09:58:07;4.10;;;0.93;;
49722;SDS011;43484;43.608;1.458;2024-01-06T10:00:36;1.83;;;0.82;;
49722;SDS011;43484;43.608;1.458;2024-01-06T10:03:04;5.32;;;0.90;;
49722;SDS011;43484;43.608;1.458;2024-01-06T10:05:30;5.43;;;1.20;;
49722;SDS011;43484;43.608;1.458;2024-01-06T10:07:57;2.05;;;1.02;;
49722;SDS011;43484;43.608;1.458;2024-01-06T10:10:25;7.55;;;1.25;;
49722;SDS011;43484;43.608;1.458;2024-01-06T10:12:53;6.03;;;2.35;;
49722;SDS011;43484;43.608;1.458;2024-01-06T10:15:21;5.63;;;1.98;;
49722;SDS011;43484;43.608;1.458;2024-01-06T10:17:48;5.88;;;1.10;;
49722;SDS011;43484;43.608;1.458;2024-01-06T10:20:16;1.90;;;1.17;;
49722;SDS011;43484;43.608;1.458;2024-01-06T10:22:44;11.23;;;1.77;;
49722;SDS011;43484;43.608;1.458;2024-01-06T10:25:11;8.10;;;2.03;;
49722;SDS011;43484;43.608;1.458;2024-01-06T10:27:39;6.07;;;1.10;;
49722;SDS011;43484;43.608;1.458;2024-01-06T10:30:07;8.40;;;1.40;;
49722;SDS011;43484;43.608;1.458;2024-01-06T10:32:35;9.90;;;1.35;;
49722;SDS011;43484;43.608;1.458;2024-01-06T10:35:04;5.50;;;1.15;;
49722;SDS011;43484;43.608;1.458;2024-01-06T10:37:33;3.85;;;0.90;;
49722;SDS011;43484;43.608;1.458;2024-01-06T10:42:36;1.80;;;0.90;;
49722;SDS011;43484;43.608;1.458;2024-01-06T10:45:09;4.70;;;1.20;;
49722;SDS011;43484;43.608;1.458;2024-01-06T10:47:37;4.55;;;1.30;;
49722;SDS011;43484;43.608;1.458;2024-01-06T10:50:05;6.53;;;1.05;;
49722;SDS011;43484;43.608;1.458;2024-01-06T10:52:33;3.55;;;0.93;;
49722;SDS011;43484;43.608;1.458;2024-01-06T10:55:01;2.40;;;1.17;;
49722;SDS011;43484;43.608;1.458;2024-01-06T10:57:31;5.88;;;1.10;;
49722;SDS011;43484;43.608;1.458;2024-01-06T10:59:58;4.93;;;1.35;;
49722;SDS011;43484;43.608;1.458;2024-01-06T11:02:26;1.88;;;0.70;;
49722;SDS011;43484;43.608;1.458;2024-01-06T11:04:53;5.22;;;1.02;;
49722;SDS011;43484;43.608;1.458;2024-01-06T11:07:20;4.55;;;1.33;;
49722;SDS011;43484;43.608;1.458;2024-01-06T11:10:02;7.65;;;2.33;;
49722;SDS011;43484;43.608;1.458;2024-01-06T11:12:33;6.00;;;0.95;;
49722;SDS011;43484;43.608;1.458;2024-01-06T11:14:59;3.05;;;1.00;;
49722;SDS011;43484;43.608;1.458;2024-01-06T11:20:20;6.10;;;0.98;;
49722;SDS011;43484;43.608;1.458;2024-01-06T11:22:57;3.75;;;1.63;;
49722;SDS011;43484;43.608;1.458;2024-01-06T11:25:44;4.47;;;0.75;;
49722;SDS011;43484;43.608;1.458;2024-01-06T11:28:11;5.55;;;1.05;;
49722;SDS011;43484;43.608;1.458;2024-01-06T11:30:38;2.85;;;1.00;;
49722;SDS011;43484;43.608;1.458;2024-01-06T11:33:06;3.35;;;0.80;;
49722;SDS011;43484;43.608;1.458;2024-01-06T11:35:37;4.85;;;1.10;;
49722;SDS011;43484;43.608;1.458;2024-01-06T11:38:06;3.15;;;1.02;;
49722;SDS011;43484;43.608;1.458;2024-01-06T11:40:34;3.03;;;0.93;;
49722;SDS011;43484;43.608;1.458;2024-01-06T11:43:03;4.15;;;1.02;;
49722;SDS011;43484;43.608;1.458;2024-01-06T11:45:35;5.43;;;1.55;;
49722;SDS011;43484;43.608;1.458;2024-01-06T11:48:04;1.60;;;0.88;;
49722;SDS011;43484;43.608;1.458;2024-01-06T11:50:33;3.67;;;0.95;;
49722;SDS011;43484;43.608;1.458;2024-01-06T11:53:02;4.47;;;1.00;;
49722;SDS011;43484;43.608;1.458;2024-01-06T11:55:30;3.83;;;0.80;;
49722;SDS011;43484;43.608;1.458;2024-01-06T11:57:59;4.93;;;1.35;;
49722;SDS011;43484;43.608;1.458;2024-01-06T12:00:29;2.15;;;1.20;;
49722;SDS011;43484;43.608;1.458;2024-01-06T12:02:57;2.58;;;1.00;;
49722;SDS011;43484;43.608;1.458;2024-01-06T12:05:28;2.67;;;1.08;;
49722;SDS011;43484;43.608;1.458;2024-01-06T12:07:58;5.43;;;1.30;;
49722;SDS011;43484;43.608;1.458;2024-01-06T12:10:27;3.05;;;0.80;;
49722;SDS011;43484;43.608;1.458;2024-01-06T12:15:29;1.88;;;1.00;;
49722;SDS011;43484;43.608;1.458;2024-01-06T12:17:57;2.50;;;0.98;;
49722;SDS011;43484;43.608;1.458;2024-01-06T12:20:25;3.85;;;1.05;;
49722;SDS011;43484;43.608;1.458;2024-01-06T12:22:52;2.85;;;1.00;;
49722;SDS011;43484;43.608;1.458;2024-01-06T12:25:20;6.07;;;1.40;;
49722;SDS011;43484;43.608;1.458;2024-01-06T12:27:49;5.20;;;1.17;;
49722;SDS011;43484;43.608;1.458;2024-01-06T12:30:20;4.05;;;1.30;;
49722;SDS011;43484;43.608;1.458;2024-01-06T12:32:49;3.10;;;0.90;;
49722;SDS011;43484;43.608;1.458;2024-01-06T12:35:19;1.50;;;0.60;;
49722;SDS011;43484;43.608;1.458;2024-01-06T12:37:46;1.00;;;0.80;;
49722;SDS011;43484;43.608;1.458;2024-01-06T12:40:13;3.75;;;1.23;;
49722;SDS011;43484;43.608;1.458;2024-01-06T12:42:43;3.85;;;0.95;;
49722;SDS011;43484;43.608;1.458;2024-01-06T12:45:12;4.05;;;0.90;;
49722;SDS011;43484;43.608;1.458;2024-01-06T12:47:39;6.10;;;1.23;;
49722;SDS011;43484;43.608;1.458;2024-01-06T12:50:07;3.05;;;1.35;;
49722;SDS011;43484;43.608;1.458;2024-01-06T12:52:35;5.20;;;1.20;;
49722;SDS011;43484;43.608;1.458;2024-01-06T12:55:01;2.97;;;1.08;;
49722;SDS011;43484;43.608;1.458;2024-01-06T12:57:30;3.67;;;0.95;;
49722;SDS011;43484;43.608;1.458;2024-01-06T12:59:57;3.13;;;1.17;;
49722;SDS011;43484;43.608;1.458;2024-01-06T13:02:23;3.20;;;1.05;;
49722;SDS011;43484;43.608;1.458;2024-01-06T13:04:50;3.72;;;0.80;;
49722;SDS011;43484;43.608;1.458;2024-01-06T13:07:17;6.60;;;1.02;;
49722;SDS011;43484;43.608;1.458;2024-01-06T13:09:44;2.83;;;1.15;;
49722;SDS011;43484;43.608;1.458;2024-01-06T13:12:11;2.45;;;0.85;;
49722;SDS011;43484;43.608;1.458;2024-01-06T13:14:38;1.20;;;1.00;;
49722;SDS011;43484;43.608;1.458;2024-01-06T13:17:05;1.95;;;0.70;;
49722;SDS011;43484;43.608;1.458;2024-01-06T13:19:32;1.15;;;0.70;;
49722;SDS011;43484;43.608;1.458;2024-01-06T13:22:00;3.13;;;0.90;;
49722;SDS011;43484;43.608;1.458;2024-01-06T13:24:27;1.80;;;1.00;;
49722;SDS011;43484;43.608;1.458;2024-01-06T13:26:54;4.43;;;0.93;;
49722;SDS011;43484;43.608;1.458;2024-01-06T13:29:20;2.15;;;0.95;;
49722;SDS011;43484;43.608;1.458;2024-01-06T13:31:47;3.50;;;0.98;;
49722;SDS011;43484;43.608;1.458;2024-01-06T13:34:14;1.30;;;0.80;;
49722;SDS011;43484;43.608;1.458;2024-01-06T13:36:41;2.55;;;1.23;;
49722;SDS011;43484;43.608;1.458;2024-01-06T13:39:08;4.50;;;1.30;;
49722;SDS011;43484;43.608;1.458;2024-01-06T13:41:34;3.60;;;1.00;;
49722;SDS011;43484;43.608;1.458;2024-01-06T13:44:02;2.67;;;1.10;;
49722;SDS011;43484;43.608;1.458;2024-01-06T13:46:29;2.42;;;1.10;;
49722;SDS011;43484;43.608;1.458;2024-01-06T13:48:55;2.78;;;1.20;;
49722;SDS011;43484;43.608;1.458;2024-01-06T13:51:23;1.85;;;0.98;;
49722;SDS011;43484;43.608;1.458;2024-01-06T13:53:50;2.28;;;0.85;;
49722;SDS011;43484;43.608;1.458;2024-01-06T13:56:16;2.55;;;1.20;;
49722;SDS011;43484;43.608;1.458;2024-01-06T13:58:44;2.22;;;0.73;;
49722;SDS011;43484;43.608;1.458;2024-01-06T14:01:11;4.15;;;0.90;;
49722;SDS011;43484;43.608;1.458;2024-01-06T14:03:38;3.38;;;1.05;;
49722;SDS011;43484;43.608;1.458;2024-01-06T14:06:06;1.77;;;0.80;;
49722;SDS011;43484;43.608;1.458;2024-01-06T14:08:33;4.85;;;1.70;;
49722;SDS011;43484;43.608;1.458;2024-01-06T14:11:00;2.92;;;1.10;;
49722;SDS011;43484;43.608;1.458;2024-01-06T14:13:26;2.03;;;0.77;;
49722;SDS011;43484;43.608;1.458;2024-01-06T14:15:57;3.95;;;1.25;;
49722;SDS011;43484;43.608;1.458;2024-01-06T14:18:24;1.92;;;0.88;;
49722;SDS011;43484;43.608;1.458;2024-01-06T14:20:51;4.22;;;1.75;;
49722;SDS011;43484;43.608;1.458;2024-01-06T14:23:18;1.90;;;1.13;;
49722;SDS011;43484;43.608;1.458;2024-01-06T14:25:46;2.67;;;1.15;;
49722;SDS011;43484;43.608;1.458;2024-01-06T14:28:13;3.70;;;1.25;;
49722;SDS011;43484;43.608;1.458;2024-01-06T14:30:40;1.90;;;1.00;;
49722;SDS011;43484;43.608;1.458;2024-01-06T14:33:06;3.05;;;1.33;;
49722;SDS011;43484;43.608;1.458;2024-01-06T14:35:33;6.93;;;1.10;;
49722;SDS011;43484;43.608;1.458;2024-01-06T14:38:00;6.43;;;1.27;;
49722;SDS011;43484;43.608;1.458;2024-01-06T14:40:27;4.10;;;1.00;;
49722;SDS011;43484;43.608;1.458;2024-01-06T14:42:53;2.55;;;0.90;;
49722;SDS011;43484;43.608;1.458;2024-01-06T14:45:20;1.90;;;1.00;;
49722;SDS011;43484;43.608;1.458;2024-01-06T14:47:48;3.92;;;0.80;;
49722;SDS011;43484;43.608;1.458;2024-01-06T14:50:17;1.40;;;0.85;;
49722;SDS011;43484;43.608;1.458;2024-01-06T14:52:44;2.38;;;0.77;;